Dodge City, Kansas
Current Conditions -  °F | °C
As of 12:52 AM on Wednesday 26 Nov 2014 (Local Time) from KDDC Reporting Station
Overcast Overcast  
Wind Chill: 34°   Ceiling: 7500
Heat Index: 43°   Visibility: 10mi
Dew Point: 26°   Wind: 21mph
Humidity: 51%   Direction: 340°NNW
Pressure: 29.98"   Gusts: 25mph
Location:  37.75°N, 100.01°W
Report Text: KDDC 260652Z AUTO 34018G22KT 10SM BKN075 OVC090 06/M03 A2998 RMK AO2 SLP152 T00611033
Loading
Personal Weather Stations






























Interactive Weather Map New forecast layout! Learn more

10-Day Weather Forecast

Advertisements
Track Severe Weather on mobile